createdAt,value
2017-01-30T00:00:07.677Z,959.22
2017-01-30T00:01:08.014Z,959.25
2017-01-30T00:02:07.471Z,959.24
2017-01-30T00:03:08.076Z,959.24
2017-01-30T00:04:07.737Z,959.25
2017-01-30T00:05:08.297Z,959.24
2017-01-30T00:06:07.898Z,959.28
2017-01-30T00:07:07.673Z,959.28
2017-01-30T00:08:08.305Z,959.29
2017-01-30T00:09:07.825Z,959.28
2017-01-30T00:10:07.333Z,959.25
2017-01-30T00:11:07.831Z,959.24
2017-01-30T00:12:07.386Z,959.25
2017-01-30T00:13:07.965Z,959.22
2017-01-30T00:14:07.552Z,959.22
2017-01-30T00:15:08.477Z,959.19
2017-01-30T00:16:08.051Z,959.21
2017-01-30T00:17:07.893Z,959.21
2017-01-30T00:18:07.396Z,959.19
2017-01-30T00:19:07.960Z,959.21
2017-01-30T00:20:07.475Z,959.21
2017-01-30T00:21:08.057Z,959.20
2017-01-30T00:22:07.585Z,959.18
2017-01-30T00:23:08.207Z,959.18
2017-01-30T00:24:07.707Z,959.14
2017-01-30T00:25:08.698Z,959.13
2017-01-30T00:26:08.319Z,959.17
2017-01-30T00:27:08.175Z,959.11
2017-01-30T00:28:08.005Z,959.10
2017-01-30T00:29:07.584Z,959.12
2017-01-30T00:30:08.104Z,959.09
2017-01-30T00:31:07.580Z,959.08
2017-01-30T00:32:08.104Z,959.09
2017-01-30T00:33:07.650Z,959.12
2017-01-30T00:34:08.394Z,959.11
2017-01-30T00:35:07.913Z,959.10
2017-01-30T00:36:07.596Z,959.12
2017-01-30T00:37:08.191Z,959.10
2017-01-30T00:38:07.735Z,959.12
2017-01-30T00:39:08.264Z,959.13
2017-01-30T00:40:08.016Z,959.10
2017-01-30T00:41:07.533Z,959.09
2017-01-30T00:42:08.162Z,959.11
2017-01-30T00:43:07.717Z,959.13
2017-01-30T00:44:08.166Z,959.14
2017-01-30T00:45:07.902Z,959.09
2017-01-30T00:46:07.707Z,959.09
2017-01-30T00:47:08.294Z,959.10
2017-01-30T00:48:07.875Z,959.09
2017-01-30T00:49:07.392Z,959.06
2017-01-30T00:50:07.965Z,959.08
2017-01-30T00:51:07.779Z,959.09
2017-01-30T00:52:07.381Z,959.02
2017-01-30T00:53:07.935Z,959.07
2017-01-30T00:54:07.559Z,959.05
2017-01-30T00:55:08.157Z,959.06
2017-01-30T00:56:07.795Z,959.06
2017-01-30T00:57:07.326Z,959.01
2017-01-30T00:58:07.951Z,959.00
2017-01-30T00:59:07.788Z,959.01
2017-01-30T01:00:07.369Z,958.98
2017-01-30T01:01:07.910Z,959.01
2017-01-30T01:02:07.717Z,958.99
2017-01-30T01:03:08.324Z,958.97
2017-01-30T01:04:08.001Z,958.96
2017-01-30T01:05:07.441Z,958.91
2017-01-30T01:06:07.939Z,958.91
2017-01-30T01:07:07.804Z,958.93
2017-01-30T01:08:07.435Z,958.94
2017-01-30T01:09:08.135Z,958.92
2017-01-30T01:10:08.614Z,958.94
2017-01-30T01:11:08.167Z,958.94
2017-01-30T01:12:07.639Z,958.96
2017-01-30T01:13:08.233Z,958.95
2017-01-30T01:14:07.733Z,958.97
2017-01-30T01:15:08.344Z,958.95
2017-01-30T01:16:07.939Z,958.95
2017-01-30T01:17:07.633Z,959.00
2017-01-30T01:18:08.183Z,958.95
2017-01-30T01:19:07.704Z,958.91
2017-01-30T01:20:08.277Z,958.94
2017-01-30T01:21:07.852Z,958.95
2017-01-30T01:22:07.870Z,958.94
2017-01-30T01:23:07.544Z,958.96
2017-01-30T01:24:08.030Z,958.90
2017-01-30T01:25:07.590Z,958.92
2017-01-30T01:26:08.032Z,958.92
2017-01-30T01:27:07.791Z,958.89
2017-01-30T01:28:07.508Z,958.90
2017-01-30T01:29:08.074Z,958.85
2017-01-30T01:30:07.674Z,958.85
2017-01-30T01:31:08.183Z,958.85
2017-01-30T01:32:07.725Z,958.81
2017-01-30T01:33:08.402Z,958.82
2017-01-30T01:34:08.025Z,958.76
2017-01-30T01:35:07.611Z,958.78
2017-01-30T01:36:08.228Z,958.75
2017-01-30T01:37:07.929Z,958.76
2017-01-30T01:38:07.514Z,958.74
2017-01-30T01:39:08.064Z,958.72
2017-01-30T01:40:07.587Z,958.69
2017-01-30T01:41:08.185Z,958.63
2017-01-30T01:42:08.114Z,958.64
2017-01-30T01:43:07.582Z,958.58
2017-01-30T01:44:08.087Z,958.63
2017-01-30T01:45:07.671Z,958.63
2017-01-30T01:46:08.233Z,958.60
2017-01-30T01:47:07.727Z,958.62
2017-01-30T01:48:07.487Z,958.63
2017-01-30T01:49:08.147Z,958.61
2017-01-30T01:50:07.846Z,958.62
2017-01-30T01:51:07.723Z,958.58
2017-01-30T01:52:08.491Z,958.60
2017-01-30T01:53:08.204Z,958.67
2017-01-30T01:54:07.795Z,958.63
2017-01-30T01:55:07.571Z,958.61
2017-01-30T01:56:08.268Z,958.65
2017-01-30T01:57:08.034Z,958.67
2017-01-30T01:58:07.771Z,958.61
2017-01-30T01:59:07.410Z,958.62
2017-01-30T02:00:08.168Z,958.62
2017-01-30T02:01:07.843Z,958.64
2017-01-30T02:02:07.550Z,958.59
2017-01-30T02:03:08.242Z,958.62
2017-01-30T02:04:07.961Z,958.63
2017-01-30T02:05:07.733Z,958.59
2017-01-30T02:06:08.390Z,958.60
2017-01-30T02:07:08.242Z,958.61
2017-01-30T02:08:07.717Z,958.57
2017-01-30T02:09:07.773Z,958.68
2017-01-30T02:10:07.342Z,958.56
2017-01-30T02:11:08.094Z,958.53
2017-01-30T02:12:07.733Z,958.51
2017-01-30T02:13:08.415Z,958.49
2017-01-30T02:14:08.105Z,958.48
2017-01-30T02:15:07.975Z,958.48
2017-01-30T02:16:07.865Z,958.45
2017-01-30T02:17:07.622Z,958.45
2017-01-30T02:18:08.423Z,958.48
2017-01-30T02:19:08.139Z,958.47
2017-01-30T02:20:07.762Z,958.50
2017-01-30T02:21:08.567Z,958.48
2017-01-30T02:22:08.259Z,958.47
2017-01-30T02:23:08.270Z,958.41
2017-01-30T02:24:08.092Z,958.40
2017-01-30T02:25:07.756Z,958.43
2017-01-30T02:26:08.493Z,958.41
2017-01-30T02:27:08.095Z,958.38
2017-01-30T02:28:07.781Z,958.42
2017-01-30T02:29:07.225Z,958.35
2017-01-30T02:30:08.070Z,958.38
2017-01-30T02:31:07.827Z,958.37
2017-01-30T02:32:07.426Z,958.37
2017-01-30T02:33:08.048Z,958.37
2017-01-30T02:34:07.751Z,958.36
2017-01-30T02:35:08.474Z,958.36
2017-01-30T02:36:08.154Z,958.33
2017-01-30T02:37:07.883Z,958.35
2017-01-30T02:38:07.638Z,958.24
2017-01-30T02:39:08.409Z,958.24
2017-01-30T02:40:08.141Z,958.21
2017-01-30T02:41:07.881Z,958.19
2017-01-30T02:42:07.618Z,958.23
2017-01-30T02:43:08.415Z,958.23
2017-01-30T02:44:08.090Z,958.18
2017-01-30T02:45:07.840Z,958.20
2017-01-30T02:46:07.526Z,958.18
2017-01-30T02:47:08.010Z,958.17
2017-01-30T02:48:08.048Z,958.19
2017-01-30T02:49:07.819Z,958.22
2017-01-30T02:50:07.295Z,958.19
2017-01-30T02:51:07.775Z,958.19
2017-01-30T02:52:07.441Z,958.20
2017-01-30T02:53:08.334Z,958.12
2017-01-30T02:54:08.000Z,958.19
2017-01-30T02:55:07.712Z,958.17
2017-01-30T02:56:08.662Z,958.20
2017-01-30T02:57:08.325Z,958.19
2017-01-30T02:58:07.909Z,958.26
2017-01-30T02:59:07.714Z,958.22
2017-01-30T03:00:08.642Z,958.25
2017-01-30T03:01:08.329Z,958.22
2017-01-30T03:02:08.041Z,958.23
2017-01-30T03:03:07.761Z,958.26
2017-01-30T03:04:08.614Z,958.28
2017-01-30T03:05:08.274Z,958.29
2017-01-30T03:06:07.715Z,958.24
2017-01-30T03:07:07.729Z,958.21
2017-01-30T03:08:07.659Z,958.23
2017-01-30T03:09:08.375Z,958.21
2017-01-30T03:10:08.123Z,958.20
2017-01-30T03:11:07.576Z,958.21
2017-01-30T03:12:07.704Z,958.19
2017-01-30T03:13:08.502Z,958.19
2017-01-30T03:14:08.174Z,958.27
2017-01-30T03:15:07.796Z,958.16
2017-01-30T03:16:07.457Z,958.21
2017-01-30T03:17:08.274Z,958.19
2017-01-30T03:18:07.995Z,958.20
2017-01-30T03:19:07.617Z,958.15
2017-01-30T03:20:08.359Z,958.18
2017-01-30T03:21:08.082Z,958.17
2017-01-30T03:22:07.759Z,958.11
2017-01-30T03:23:08.459Z,958.14
2017-01-30T03:24:08.145Z,958.14
2017-01-30T03:25:07.950Z,958.13
2017-01-30T03:26:07.603Z,958.15
2017-01-30T03:27:08.293Z,958.14
2017-01-30T03:28:07.950Z,958.15
2017-01-30T03:29:07.714Z,958.09
2017-01-30T03:30:08.433Z,958.07
2017-01-30T03:31:08.082Z,958.08
2017-01-30T03:32:07.567Z,958.07
2017-01-30T03:33:07.691Z,958.08
2017-01-30T03:34:08.404Z,958.17
2017-01-30T03:35:08.097Z,958.17
2017-01-30T03:36:07.834Z,958.23
2017-01-30T03:37:07.372Z,958.23
2017-01-30T03:38:07.992Z,958.21
2017-01-30T03:39:07.933Z,958.19
2017-01-30T03:40:07.684Z,958.17
2017-01-30T03:41:08.295Z,958.14
2017-01-30T03:42:08.126Z,958.17
2017-01-30T03:43:07.951Z,958.22
2017-01-30T03:44:07.586Z,958.20
2017-01-30T03:45:08.319Z,958.22
2017-01-30T03:46:08.001Z,958.21
2017-01-30T03:47:07.642Z,958.20
2017-01-30T03:48:08.403Z,958.22
2017-01-30T03:49:08.053Z,958.19
2017-01-30T03:50:07.865Z,958.20
2017-01-30T03:51:07.749Z,958.16
2017-01-30T03:52:07.368Z,958.13
2017-01-30T03:53:07.989Z,958.15
2017-01-30T03:54:07.694Z,958.13
2017-01-30T03:55:08.394Z,958.12
2017-01-30T03:56:08.095Z,958.11
2017-01-30T03:57:07.790Z,958.11
2017-01-30T03:58:07.505Z,958.14
2017-01-30T03:59:08.165Z,958.11
2017-01-30T04:00:07.758Z,958.13
2017-01-30T04:01:07.422Z,958.10
2017-01-30T04:02:08.108Z,958.12
2017-01-30T04:03:07.710Z,958.12
2017-01-30T04:04:08.514Z,958.14
2017-01-30T04:05:08.052Z,958.09
2017-01-30T04:06:08.243Z,958.06
2017-01-30T04:07:07.898Z,958.10
2017-01-30T04:08:07.500Z,958.14
2017-01-30T04:09:08.163Z,958.10
2017-01-30T04:10:07.924Z,958.08
2017-01-30T04:11:07.859Z,958.10
2017-01-30T04:12:07.583Z,958.14
2017-01-30T04:13:08.349Z,958.11
2017-01-30T04:14:08.150Z,958.12
2017-01-30T04:15:07.955Z,958.10
2017-01-30T04:16:07.448Z,958.15
2017-01-30T04:17:08.625Z,958.10
2017-01-30T04:18:08.330Z,958.08
2017-01-30T04:19:08.024Z,958.16
2017-01-30T04:20:07.570Z,958.13
2017-01-30T04:21:07.567Z,958.13
2017-01-30T04:22:07.921Z,958.11
2017-01-30T04:23:07.617Z,958.12
2017-01-30T04:24:08.385Z,958.13
2017-01-30T04:25:08.107Z,958.11
2017-01-30T04:26:07.786Z,958.13
2017-01-30T04:27:07.432Z,958.07
2017-01-30T04:28:08.117Z,958.09
2017-01-30T04:29:07.846Z,958.07
2017-01-30T04:30:07.590Z,958.08
2017-01-30T04:31:08.306Z,958.12
2017-01-30T04:32:07.971Z,958.03
2017-01-30T04:33:07.623Z,958.07
2017-01-30T04:34:08.441Z,958.06
2017-01-30T04:35:08.168Z,958.02
2017-01-30T04:36:07.821Z,957.99
2017-01-30T04:37:07.481Z,958.00
2017-01-30T04:38:08.281Z,957.99
2017-01-30T04:39:07.943Z,957.99
2017-01-30T04:40:07.719Z,958.03
2017-01-30T04:41:08.393Z,957.97
2017-01-30T04:42:08.300Z,957.96
2017-01-30T04:43:07.957Z,958.00
2017-01-30T04:44:07.611Z,958.02
2017-01-30T04:45:08.399Z,957.99
2017-01-30T04:46:08.105Z,957.99
2017-01-30T04:47:07.773Z,957.98
2017-01-30T04:48:07.364Z,957.96
2017-01-30T04:49:07.546Z,957.99
2017-01-30T04:50:08.238Z,957.97
2017-01-30T04:51:07.940Z,957.93
2017-01-30T04:52:07.627Z,957.95
2017-01-30T04:53:08.233Z,957.95
2017-01-30T04:54:07.930Z,957.93
2017-01-30T04:55:07.665Z,957.89
2017-01-30T04:56:08.339Z,958.00
2017-01-30T04:57:08.189Z,957.93
2017-01-30T04:58:08.063Z,957.91
2017-01-30T04:59:07.702Z,957.88
2017-01-30T05:00:08.366Z,957.86
2017-01-30T05:01:08.037Z,957.87
2017-01-30T05:02:07.679Z,957.87
2017-01-30T05:03:08.437Z,957.88
2017-01-30T05:04:08.200Z,957.87
2017-01-30T05:05:07.879Z,957.83
2017-01-30T05:06:07.818Z,957.92
2017-01-30T05:07:07.320Z,957.91
2017-01-30T05:08:08.318Z,957.93
2017-01-30T05:09:07.630Z,957.87
2017-01-30T05:10:08.335Z,957.92
2017-01-30T05:11:08.044Z,957.93
2017-01-30T05:12:07.782Z,957.91
2017-01-30T05:13:07.533Z,957.90
2017-01-30T05:14:08.189Z,957.88
2017-01-30T05:15:07.725Z,957.95
2017-01-30T05:16:08.447Z,957.89
2017-01-30T05:17:08.250Z,957.91
2017-01-30T05:18:08.067Z,957.87
2017-01-30T05:19:07.725Z,957.85
2017-01-30T05:20:08.545Z,957.84
2017-01-30T05:21:08.231Z,957.84
2017-01-30T05:22:07.952Z,957.82
2017-01-30T05:23:07.604Z,957.81
2017-01-30T05:24:08.291Z,957.81
2017-01-30T05:25:10.613Z,957.81
2017-01-30T05:26:07.874Z,957.90
2017-01-30T05:27:08.001Z,957.84
2017-01-30T05:28:07.620Z,957.89
2017-01-30T05:29:08.316Z,957.89
2017-01-30T05:30:08.326Z,957.82
2017-01-30T05:31:08.014Z,957.85
2017-01-30T05:32:07.740Z,957.83
2017-01-30T05:33:08.453Z,957.81
2017-01-30T05:34:08.292Z,957.81
2017-01-30T05:35:08.052Z,957.80
2017-01-30T05:36:07.905Z,957.83
2017-01-30T05:37:07.619Z,957.85
2017-01-30T05:38:08.332Z,957.86
2017-01-30T05:39:08.083Z,957.82
2017-01-30T05:40:07.822Z,957.83
2017-01-30T05:41:18.000Z,957.81
2017-01-30T05:42:07.712Z,957.79
2017-01-30T05:43:08.162Z,957.77
2017-01-30T05:44:08.129Z,957.79
2017-01-30T05:45:07.825Z,957.79
2017-01-30T05:46:07.677Z,957.79
2017-01-30T05:47:08.401Z,957.75
2017-01-30T05:48:08.205Z,957.73
2017-01-30T05:49:07.854Z,957.78
2017-01-30T05:50:07.392Z,957.77
2017-01-30T05:51:08.864Z,957.83
2017-01-30T05:52:07.540Z,957.84
2017-01-30T05:53:08.249Z,957.81
2017-01-30T05:54:07.966Z,957.75
2017-01-30T05:55:08.489Z,957.76
2017-01-30T05:56:07.673Z,957.75
2017-01-30T05:57:08.442Z,957.75
2017-01-30T05:58:08.208Z,957.75
2017-01-30T05:59:07.922Z,957.75
2017-01-30T06:00:07.770Z,957.75
2017-01-30T06:01:17.780Z,957.72
2017-01-30T06:02:07.357Z,957.75
2017-01-30T06:03:08.119Z,957.79
2017-01-30T06:04:07.891Z,957.79
2017-01-30T06:05:07.601Z,957.81
2017-01-30T06:06:08.463Z,957.82
2017-01-30T06:07:08.191Z,957.79
2017-01-30T06:08:07.923Z,957.79
2017-01-30T06:09:07.682Z,957.79
2017-01-30T06:10:08.465Z,957.75
2017-01-30T06:11:08.167Z,957.73
2017-01-30T06:12:07.840Z,957.73
2017-01-30T06:13:07.606Z,957.67
2017-01-30T06:14:08.370Z,957.62
2017-01-30T06:15:08.004Z,957.64
2017-01-30T06:16:07.784Z,957.62
2017-01-30T06:17:07.508Z,957.60
2017-01-30T06:18:08.223Z,957.63
2017-01-30T06:19:07.783Z,957.62
2017-01-30T06:20:07.714Z,957.60
2017-01-30T06:21:08.357Z,957.62
2017-01-30T06:22:08.080Z,957.59
2017-01-30T06:23:07.887Z,957.59
2017-01-30T06:24:07.676Z,957.59
2017-01-30T06:25:08.473Z,957.54
2017-01-30T06:26:08.174Z,957.54
2017-01-30T06:27:07.774Z,957.54
2017-01-30T06:28:07.574Z,957.54
2017-01-30T06:29:08.357Z,957.52
2017-01-30T06:30:08.124Z,957.51
2017-01-30T06:31:07.834Z,957.54
2017-01-30T06:32:07.506Z,957.56
2017-01-30T06:33:08.252Z,957.63
2017-01-30T06:34:07.935Z,957.55
2017-01-30T06:35:07.604Z,957.53
2017-01-30T06:36:08.080Z,957.56
2017-01-30T06:37:07.672Z,957.55
2017-01-30T06:38:08.546Z,957.50
2017-01-30T06:39:08.315Z,957.50
2017-01-30T06:40:08.118Z,957.51
2017-01-30T06:41:07.753Z,957.49
2017-01-30T06:42:07.897Z,957.46
2017-01-30T06:43:18.045Z,957.44
2017-01-30T06:44:07.975Z,957.48
2017-01-30T06:45:07.624Z,957.44
2017-01-30T06:46:08.434Z,957.44
2017-01-30T06:47:08.190Z,957.41
2017-01-30T06:48:07.781Z,957.45
2017-01-30T06:49:07.554Z,957.44
2017-01-30T06:50:08.209Z,957.42
2017-01-30T06:51:07.808Z,957.40
2017-01-30T06:52:07.427Z,957.42
2017-01-30T06:53:07.863Z,957.43
2017-01-30T06:54:07.431Z,957.47
2017-01-30T06:55:08.156Z,957.41
2017-01-30T06:56:08.016Z,957.42
2017-01-30T06:57:07.540Z,957.44
2017-01-30T06:58:08.244Z,957.43
2017-01-30T06:59:08.066Z,957.42
2017-01-30T07:00:07.686Z,957.44
2017-01-30T07:01:08.263Z,957.42
2017-01-30T07:02:08.196Z,957.44
2017-01-30T07:03:08.005Z,957.47
2017-01-30T07:04:07.871Z,957.45
2017-01-30T07:05:07.638Z,957.43
2017-01-30T07:06:08.293Z,957.47
2017-01-30T07:07:08.041Z,957.47
2017-01-30T07:08:07.755Z,957.49
2017-01-30T07:09:07.569Z,957.45
2017-01-30T07:10:08.466Z,957.44
2017-01-30T07:11:08.167Z,957.52
2017-01-30T07:12:07.832Z,957.47
2017-01-30T07:13:07.299Z,957.46
2017-01-30T07:14:07.612Z,957.43
2017-01-30T07:15:08.307Z,957.41
2017-01-30T07:16:08.023Z,957.41
2017-01-30T07:17:07.920Z,957.40
2017-01-30T07:18:07.484Z,957.38
2017-01-30T07:19:08.191Z,957.32
2017-01-30T07:20:07.865Z,957.30
2017-01-30T07:21:07.508Z,957.22
2017-01-30T07:22:08.329Z,957.24
2017-01-30T07:23:08.169Z,957.22
2017-01-30T07:24:07.912Z,957.19
2017-01-30T07:25:07.728Z,957.20
2017-01-30T07:26:08.502Z,957.18
2017-01-30T07:27:08.265Z,957.17
2017-01-30T07:28:08.124Z,957.13
2017-01-30T07:29:07.715Z,957.14
2017-01-30T07:30:08.383Z,957.13
2017-01-30T07:31:08.185Z,957.12
2017-01-30T07:32:07.966Z,957.06
2017-01-30T07:33:07.662Z,957.10
2017-01-30T07:34:08.480Z,957.06
2017-01-30T07:35:08.382Z,957.05
2017-01-30T07:36:08.113Z,957.03
2017-01-30T07:37:07.828Z,957.01
2017-01-30T07:38:07.545Z,956.94
2017-01-30T07:39:08.294Z,956.94
2017-01-30T07:40:07.913Z,956.96
2017-01-30T07:41:07.582Z,956.91
2017-01-30T07:42:08.301Z,956.90
2017-01-30T07:43:08.004Z,956.89
2017-01-30T07:44:07.764Z,956.91
2017-01-30T07:45:08.459Z,956.90
2017-01-30T07:46:07.871Z,956.89
2017-01-30T07:47:08.054Z,956.94
2017-01-30T07:48:07.486Z,956.91
2017-01-30T07:49:08.037Z,956.93
2017-01-30T07:50:07.986Z,956.90
2017-01-30T07:51:07.703Z,956.88
2017-01-30T07:52:08.449Z,956.87
2017-01-30T07:53:08.269Z,956.88
2017-01-30T07:54:08.032Z,956.87
2017-01-30T07:55:07.852Z,956.84
2017-01-30T07:56:07.605Z,956.86
2017-01-30T07:57:08.280Z,956.84
2017-01-30T07:58:08.008Z,956.85
2017-01-30T07:59:07.589Z,956.83
2017-01-30T08:00:08.349Z,956.78
2017-01-30T08:01:08.056Z,956.80
2017-01-30T08:02:07.696Z,956.78
2017-01-30T08:03:08.142Z,956.73
2017-01-30T08:04:07.771Z,956.75
2017-01-30T08:05:07.407Z,956.75
2017-01-30T08:06:08.081Z,956.73
2017-01-30T08:07:08.448Z,956.71
2017-01-30T08:08:08.137Z,956.70
2017-01-30T08:09:07.900Z,956.72
2017-01-30T08:10:07.613Z,956.66
2017-01-30T08:11:08.295Z,956.72
2017-01-30T08:12:07.992Z,956.67
2017-01-30T08:13:07.678Z,956.70
2017-01-30T08:14:08.417Z,956.69
2017-01-30T08:15:08.041Z,956.68
2017-01-30T08:16:07.663Z,956.67
2017-01-30T08:17:08.225Z,956.64
2017-01-30T08:18:07.581Z,956.65
2017-01-30T08:19:08.437Z,956.59
2017-01-30T08:20:08.115Z,956.62
2017-01-30T08:21:07.951Z,956.65
2017-01-30T08:22:07.533Z,956.60
2017-01-30T08:23:08.143Z,956.54
2017-01-30T08:24:07.770Z,956.49
2017-01-30T08:25:07.442Z,956.45
2017-01-30T08:26:08.181Z,956.50
2017-01-30T08:27:07.763Z,956.50
2017-01-30T08:28:07.372Z,956.54
2017-01-30T08:29:08.070Z,956.54
2017-01-30T08:30:07.712Z,956.52
2017-01-30T08:31:08.445Z,956.47
2017-01-30T08:32:08.155Z,956.45
2017-01-30T08:33:07.894Z,956.46
2017-01-30T08:34:07.762Z,956.50
2017-01-30T08:35:07.448Z,956.49
2017-01-30T08:36:08.230Z,956.52
2017-01-30T08:37:07.947Z,956.48
2017-01-30T08:38:07.587Z,956.47
2017-01-30T08:39:08.266Z,956.48
2017-01-30T08:40:08.090Z,956.44
2017-01-30T08:41:07.888Z,956.44
2017-01-30T08:42:07.645Z,956.44
2017-01-30T08:43:07.888Z,956.45
2017-01-30T08:44:07.582Z,956.46
2017-01-30T08:45:08.214Z,956.47
2017-01-30T08:46:07.873Z,956.48
2017-01-30T08:47:15.028Z,956.46
2017-01-30T08:48:07.737Z,956.43
2017-01-30T08:49:08.447Z,956.47
2017-01-30T08:50:08.348Z,956.42
2017-01-30T08:51:08.205Z,956.45
2017-01-30T08:52:07.958Z,956.44
2017-01-30T08:53:07.688Z,956.40
2017-01-30T08:54:08.354Z,956.50
2017-01-30T08:55:08.091Z,956.44
2017-01-30T08:56:07.749Z,956.45
2017-01-30T08:57:08.565Z,956.37
2017-01-30T08:58:08.380Z,956.41
2017-01-30T08:59:08.025Z,956.39
2017-01-30T09:00:08.768Z,956.35
2017-01-30T09:01:07.747Z,956.38
2017-01-30T09:02:08.495Z,956.37
2017-01-30T09:03:08.168Z,956.39
2017-01-30T09:04:07.893Z,956.39
2017-01-30T09:05:07.580Z,956.39
2017-01-30T09:06:08.304Z,956.36
2017-01-30T09:07:07.968Z,956.34
2017-01-30T09:08:07.704Z,956.35
2017-01-30T09:09:08.474Z,956.37
2017-01-30T09:10:08.243Z,956.34
2017-01-30T09:11:08.089Z,956.37
2017-01-30T09:12:07.668Z,956.34
2017-01-30T09:13:07.719Z,956.34
2017-01-30T09:14:08.395Z,956.31
2017-01-30T09:15:08.108Z,956.33
2017-01-30T09:16:07.786Z,956.36
2017-01-30T09:17:07.592Z,956.32
2017-01-30T09:18:08.343Z,956.30
2017-01-30T09:19:08.026Z,956.30
2017-01-30T09:20:07.775Z,956.31
2017-01-30T09:21:07.479Z,956.29
2017-01-30T09:22:08.181Z,956.25
2017-01-30T09:23:07.955Z,956.28
2017-01-30T09:24:07.630Z,956.28
2017-01-30T09:25:08.525Z,956.33
2017-01-30T09:26:08.252Z,956.31
2017-01-30T09:27:08.238Z,956.33
2017-01-30T09:28:07.933Z,956.32
2017-01-30T09:29:07.584Z,956.30
2017-01-30T09:30:08.401Z,956.30
2017-01-30T09:31:08.135Z,956.30
2017-01-30T09:32:08.019Z,956.26
2017-01-30T09:33:07.701Z,956.27
2017-01-30T09:34:08.533Z,956.25
2017-01-30T09:35:08.292Z,956.26
2017-01-30T09:36:07.964Z,956.22
2017-01-30T09:37:07.682Z,956.26
2017-01-30T09:38:08.412Z,956.25
2017-01-30T09:39:08.297Z,956.27
2017-01-30T09:40:08.042Z,956.24
2017-01-30T09:41:07.713Z,956.27
2017-01-30T09:42:08.435Z,956.27
2017-01-30T09:43:07.881Z,956.22
2017-01-30T09:44:08.959Z,956.22
2017-01-30T09:45:07.533Z,956.19
2017-01-30T09:46:08.314Z,956.22
2017-01-30T09:47:08.173Z,956.19
2017-01-30T09:48:07.788Z,956.20
2017-01-30T09:49:07.441Z,956.21
2017-01-30T09:50:08.097Z,956.19
2017-01-30T09:51:07.698Z,956.16
2017-01-30T09:52:08.375Z,956.17
2017-01-30T09:53:08.010Z,956.16
2017-01-30T09:54:08.005Z,956.19
2017-01-30T09:55:07.666Z,956.18
2017-01-30T09:56:08.431Z,956.19
2017-01-30T09:57:08.118Z,956.17
2017-01-30T09:58:07.562Z,956.18
2017-01-30T09:59:08.435Z,956.15
2017-01-30T10:00:08.139Z,956.13
2017-01-30T10:01:07.859Z,956.13
2017-01-30T10:02:07.466Z,956.11
2017-01-30T10:03:08.061Z,956.09
2017-01-30T10:04:07.790Z,956.08
2017-01-30T10:05:07.630Z,956.11
2017-01-30T10:06:08.310Z,956.09
2017-01-30T10:07:07.963Z,956.03
2017-01-30T10:08:07.402Z,956.05
2017-01-30T10:09:07.712Z,956.07
2017-01-30T10:10:08.485Z,956.07
2017-01-30T10:11:08.182Z,956.18
2017-01-30T10:12:07.967Z,956.37
2017-01-30T10:13:07.761Z,956.45
2017-01-30T10:14:07.332Z,956.43
2017-01-30T10:15:07.995Z,956.36
2017-01-30T10:16:07.665Z,956.19
2017-01-30T10:17:08.498Z,955.98
2017-01-30T10:18:08.182Z,955.98
2017-01-30T10:19:07.795Z,956.03
2017-01-30T10:20:07.522Z,956.04
2017-01-30T10:21:08.182Z,956.12
2017-01-30T10:22:07.863Z,956.17
2017-01-30T10:23:07.516Z,956.20
2017-01-30T10:24:08.168Z,956.13
2017-01-30T10:25:07.875Z,956.13
2017-01-30T10:26:07.564Z,956.14
2017-01-30T10:27:08.234Z,956.06
2017-01-30T10:28:07.968Z,956.05
2017-01-30T10:29:07.607Z,955.99
2017-01-30T10:30:08.055Z,955.96
2017-01-30T10:31:07.487Z,955.93
2017-01-30T10:32:08.200Z,955.91
2017-01-30T10:33:07.858Z,955.90
2017-01-30T10:34:07.599Z,955.90
2017-01-30T10:35:08.243Z,955.90
2017-01-30T10:36:07.967Z,955.84
2017-01-30T10:37:07.646Z,955.88
2017-01-30T10:38:08.417Z,955.84
2017-01-30T10:39:08.165Z,955.81
2017-01-30T10:40:08.001Z,955.78
2017-01-30T10:41:07.632Z,955.74
2017-01-30T10:42:08.368Z,955.75
2017-01-30T10:43:07.973Z,955.68
2017-01-30T10:44:07.681Z,955.65
2017-01-30T10:45:08.158Z,955.71
2017-01-30T10:46:08.155Z,955.67
2017-01-30T10:47:08.405Z,955.62
2017-01-30T10:48:08.029Z,955.58
2017-01-30T10:49:07.749Z,955.47
2017-01-30T10:50:08.460Z,955.42
2017-01-30T10:51:08.079Z,955.34
2017-01-30T10:52:07.784Z,955.31
2017-01-30T10:53:07.431Z,955.29
2017-01-30T10:54:08.335Z,955.28
2017-01-30T10:55:08.129Z,955.23
2017-01-30T10:56:07.803Z,955.23
2017-01-30T10:57:07.578Z,955.20
2017-01-30T10:58:08.395Z,955.20
2017-01-30T10:59:08.185Z,955.20
2017-01-30T11:00:07.721Z,955.21
2017-01-30T11:01:07.671Z,955.24
2017-01-30T11:02:08.559Z,955.29
2017-01-30T11:03:08.138Z,955.39
2017-01-30T11:04:07.689Z,955.67
2017-01-30T11:05:08.441Z,955.80
2017-01-30T11:06:08.171Z,955.89
2017-01-30T11:07:07.955Z,955.90
2017-01-30T11:08:07.730Z,955.71
2017-01-30T11:09:08.411Z,955.86
2017-01-30T11:10:08.127Z,955.97
2017-01-30T11:11:07.835Z,955.96
2017-01-30T11:12:07.696Z,955.83
2017-01-30T11:13:08.389Z,955.93
2017-01-30T11:14:07.984Z,955.88
2017-01-30T11:15:07.624Z,955.93
2017-01-30T11:16:08.422Z,955.82
2017-01-30T11:17:08.335Z,955.73
2017-01-30T11:18:08.081Z,955.81
2017-01-30T11:19:07.859Z,955.78
2017-01-30T11:20:07.601Z,955.73
2017-01-30T11:21:08.358Z,955.66
2017-01-30T11:22:08.167Z,955.59
2017-01-30T11:23:08.084Z,955.64
2017-01-30T11:24:07.780Z,955.63
2017-01-30T11:25:07.555Z,955.60
2017-01-30T11:26:08.134Z,955.54
2017-01-30T11:27:07.879Z,955.54
2017-01-30T11:28:07.502Z,955.46
2017-01-30T11:29:08.505Z,955.42
2017-01-30T11:30:08.291Z,955.41
2017-01-30T11:31:07.981Z,955.44
2017-01-30T11:32:07.439Z,955.47
2017-01-30T11:33:08.542Z,955.40
2017-01-30T11:34:08.461Z,955.30
2017-01-30T11:35:08.176Z,955.27
2017-01-30T11:36:07.864Z,955.19
2017-01-30T11:37:07.574Z,955.17
2017-01-30T11:38:08.324Z,955.12
2017-01-30T11:39:07.993Z,955.06
2017-01-30T11:40:07.725Z,955.05
2017-01-30T11:41:08.465Z,954.96
2017-01-30T11:42:08.082Z,954.98
2017-01-30T11:43:08.175Z,954.93
2017-01-30T11:44:07.880Z,954.95
2017-01-30T11:45:07.535Z,954.91
2017-01-30T11:46:08.254Z,954.87
2017-01-30T11:47:07.718Z,954.92
2017-01-30T11:48:07.626Z,954.86
2017-01-30T11:49:08.488Z,954.82
2017-01-30T11:50:08.213Z,954.76
2017-01-30T11:51:07.915Z,954.81
2017-01-30T11:52:07.543Z,954.84
2017-01-30T11:53:08.184Z,954.83
2017-01-30T11:54:08.031Z,954.84
2017-01-30T11:55:08.181Z,954.80
2017-01-30T11:56:07.942Z,954.79
2017-01-30T11:57:07.638Z,954.76
2017-01-30T11:58:08.371Z,954.76
2017-01-30T11:59:08.316Z,954.65
2017-01-30T12:00:07.892Z,954.60
2017-01-30T12:01:07.425Z,954.52
2017-01-30T12:02:07.649Z,954.51
2017-01-30T12:03:07.984Z,954.54
2017-01-30T12:04:07.731Z,954.59
2017-01-30T12:05:08.474Z,954.65
2017-01-30T12:06:08.165Z,954.70
2017-01-30T12:07:07.957Z,954.76
2017-01-30T12:08:07.659Z,954.77
2017-01-30T12:09:08.526Z,954.82
2017-01-30T12:10:08.328Z,954.84
2017-01-30T12:11:07.990Z,954.75
2017-01-30T12:12:07.663Z,954.77
2017-01-30T12:13:08.345Z,954.72
2017-01-30T12:14:08.032Z,954.65
2017-01-30T12:15:07.677Z,954.68
2017-01-30T12:16:08.511Z,954.67
2017-01-30T12:17:08.080Z,954.54
2017-01-30T12:18:08.386Z,954.52
2017-01-30T12:19:08.078Z,954.55
2017-01-30T12:20:07.801Z,954.52
2017-01-30T12:21:07.531Z,954.48
2017-01-30T12:22:08.202Z,954.41
2017-01-30T12:23:18.394Z,954.43
2017-01-30T12:24:08.112Z,954.41
2017-01-30T12:25:07.797Z,954.41
2017-01-30T12:26:07.536Z,954.37
2017-01-30T12:27:08.402Z,954.35
2017-01-30T12:28:08.226Z,954.27